Time;durP1;ratioP1;P1;durP2;ratioP2;P2;SDS_P1;SDS_P2;PMS_P1;PMS_P2;Temp;Humidity;BMP_temperature;BMP_pressure;BME280_temperature;BME280_humidity;BME280_pressure;Samples;Min_cycle;Max_cycle;Signal;HPM_P1;HPM_P2
2024/04/18 00:01:58;;;;;;;2.30;2.10;;;18.40;73.30;;;;;;5383571;26;20027;-84
2024/04/18 00:04:24;;;;;;;1.67;1.58;;;18.40;73.40;;;;;;5444050;26;19995;-84
2024/04/18 00:06:50;;;;;;;1.80;1.70;;;18.40;73.70;;;;;;5411869;26;20031;-84
2024/04/18 00:09:15;;;;;;;1.58;1.48;;;18.40;73.40;;;;;;5470141;26;20016;-84
2024/04/18 00:11:41;;;;;;;1.40;1.30;;;18.40;73.40;;;;;;5439678;26;20068;-84
2024/04/18 00:14:07;;;;;;;1.33;1.23;;;18.40;73.40;;;;;;5437888;26;20014;-84
2024/04/18 00:16:32;;;;;;;1.70;1.35;;;18.40;73.40;;;;;;5445442;26;20003;-83
2024/04/18 00:18:58;;;;;;;1.52;1.42;;;18.40;73.40;;;;;;5439964;26;20014;-83
2024/04/18 00:21:23;;;;;;;1.30;1.20;;;18.40;73.40;;;;;;5439143;26;20128;-83
2024/04/18 00:23:51;;;;;;;1.58;1.48;;;18.40;73.30;;;;;;5443237;26;20018;-84
2024/04/18 00:26:17;;;;;;;1.45;1.35;;;18.40;73.40;;;;;;5441364;26;20007;-84
2024/04/18 00:28:42;;;;;;;1.63;1.52;;;18.40;73.50;;;;;;5385047;26;20071;-84
2024/04/18 00:31:08;;;;;;;1.20;1.20;;;18.40;73.50;;;;;;5378918;26;20340;-84
2024/04/18 00:33:33;;;;;;;1.42;1.33;;;18.40;73.40;;;;;;5441133;26;20093;-84
2024/04/18 00:35:59;;;;;;;1.10;1.05;;;18.40;73.40;;;;;;5412459;26;20011;-84
2024/04/18 00:38:24;;;;;;;1.23;1.23;;;18.30;73.40;;;;;;5439837;26;20404;-84
2024/04/18 00:40:50;;;;;;;1.83;1.38;;;18.30;74.20;;;;;;5440046;26;19995;-84
2024/04/18 00:43:19;;;;;;;1.20;1.20;;;18.30;73.50;;;;;;5444103;26;20003;-84
2024/04/18 00:45:44;;;;;;;1.63;1.35;;;18.30;73.60;;;;;;5411272;26;20083;-83
2024/04/18 00:48:10;;;;;;;1.10;1.10;;;18.30;74.30;;;;;;5440188;26;20472;-84
2024/04/18 00:50:35;;;;;;;1.17;1.10;;;18.30;73.60;;;;;;5381708;26;19999;-84
2024/04/18 00:53:01;;;;;;;1.20;1.20;;;18.30;73.60;;;;;;5463065;26;20006;-84
2024/04/18 00:55:29;;;;;;;1.20;1.20;;;18.30;73.60;;;;;;5469284;26;20000;-84
2024/04/18 00:57:55;;;;;;;1.50;1.40;;;18.30;73.60;;;;;;5382694;26;20081;-84
2024/04/18 01:00:21;;;;;;;1.20;1.10;;;18.30;73.70;;;;;;5411961;26;20016;-83
2024/04/18 01:02:46;;;;;;;1.83;1.73;;;18.30;73.60;;;;;;5383423;26;20337;-83
2024/04/18 01:05:12;;;;;;;1.13;1.10;;;18.20;73.60;;;;;;5436389;26;20026;-83
2024/04/18 01:07:38;;;;;;;1.45;1.35;;;18.20;73.70;;;;;;5411645;26;19995;-83
2024/04/18 01:10:04;;;;;;;1.08;1.08;;;18.20;73.80;;;;;;5435041;26;20034;-82
2024/04/18 01:12:29;;;;;;;1.25;1.15;;;18.20;73.80;;;;;;5409867;26;20332;-82
2024/04/18 01:14:55;;;;;;;1.20;1.10;;;18.20;73.80;;;;;;5435206;26;20011;-82
2024/04/18 01:17:20;;;;;;;1.35;1.25;;;18.20;73.90;;;;;;5439976;26;20041;-82
2024/04/18 01:19:46;;;;;;;1.40;1.00;;;18.20;73.90;;;;;;5439641;26;20017;-83
2024/04/18 01:22:11;;;;;;;0.85;0.85;;;18.20;73.80;;;;;;5438937;26;20071;-83
2024/04/18 01:24:37;;;;;;;0.95;0.95;;;18.20;74.60;;;;;;5436122;26;20003;-84
2024/04/18 01:27:03;;;;;;;1.20;1.10;;;18.20;73.70;;;;;;5434938;26;20015;-84
2024/04/18 01:29:28;;;;;;;1.30;1.20;;;18.20;73.80;;;;;;5439004;26;20035;-84
2024/04/18 01:31:54;;;;;;;1.42;1.33;;;18.20;74.00;;;;;;5437328;26;20644;-85
2024/04/18 01:34:19;;;;;;;0.98;0.90;;;18.20;74.00;;;;;;5436292;26;20002;-86
2024/04/18 01:36:45;;;;;;;1.30;1.20;;;18.20;74.00;;;;;;5407211;26;19995;-85
2024/04/18 01:39:10;;;;;;;3.00;0.98;;;18.20;74.10;;;;;;5435138;26;20007;-86
2024/04/18 01:41:36;;;;;;;1.30;1.20;;;18.20;74.10;;;;;;5436902;26;20075;-85
2024/04/18 01:44:02;;;;;;;1.30;1.20;;;18.20;74.00;;;;;;5408664;26;20095;-85
2024/04/18 01:46:27;;;;;;;0.80;0.80;;;18.20;74.10;;;;;;5412138;26;20394;-86
2024/04/18 01:48:53;;;;;;;1.00;0.90;;;18.20;74.10;;;;;;5441024;26;20003;-84
2024/04/18 01:51:18;;;;;;;0.95;0.95;;;18.20;74.10;;;;;;5434289;26;20007;-83
2024/04/18 01:53:44;;;;;;;1.17;1.15;;;18.20;74.10;;;;;;5408431;26;20753;-85
2024/04/18 01:56:09;;;;;;;1.17;1.10;;;18.20;74.20;;;;;;5436968;26;20011;-85
2024/04/18 01:58:35;;;;;;;1.00;1.00;;;18.20;73.80;;;;;;5412697;26;19995;-85
2024/04/18 02:01:01;;;;;;;1.15;0.98;;;18.20;71.30;;;;;;5435075;26;20015;-85
2024/04/18 02:03:26;;;;;;;1.30;1.20;;;18.20;71.10;;;;;;5432881;26;20003;-85
2024/04/18 02:05:52;;;;;;;0.90;0.90;;;18.20;71.10;;;;;;5439627;26;20018;-85
2024/04/18 02:08:17;;;;;;;1.20;1.10;;;18.20;71.10;;;;;;5442010;26;20018;-83
2024/04/18 02:10:43;;;;;;;1.08;0.98;;;18.20;70.90;;;;;;5446340;26;20475;-83
2024/04/18 02:13:08;;;;;;;1.10;0.95;;;18.20;71.00;;;;;;5467708;26;20018;-83
2024/04/18 02:15:34;;;;;;;0.98;0.93;;;18.20;70.90;;;;;;5440326;26;20006;-84
2024/04/18 02:18:00;;;;;;;0.80;0.80;;;18.20;71.30;;;;;;5471731;26;20015;-84
2024/04/18 02:20:26;;;;;;;0.93;0.90;;;18.20;71.10;;;;;;5442980;26;20015;-84
2024/04/18 02:22:51;;;;;;;0.90;0.90;;;18.20;71.90;;;;;;5412586;26;20010;-84
2024/04/18 02:25:17;;;;;;;1.13;1.00;;;18.20;71.00;;;;;;5415866;26;20002;-85
2024/04/18 02:27:42;;;;;;;1.10;1.10;;;18.20;71.00;;;;;;5443024;26;20459;-84
2024/04/18 02:30:09;;;;;;;2.47;1.27;;;18.20;71.10;;;;;;5443365;26;19999;-83
2024/04/18 02:32:35;;;;;;;0.80;0.75;;;18.20;70.90;;;;;;5433914;26;20014;-83
2024/04/18 02:35:01;;;;;;;0.80;0.80;;;18.20;70.90;;;;;;5408526;26;20027;-84
2024/04/18 02:37:27;;;;;;;0.90;0.90;;;18.10;71.00;;;;;;5443447;26;20068;-84
2024/04/18 02:39:52;;;;;;;1.00;1.00;;;18.20;71.10;;;;;;5442810;26;19998;-83
2024/04/18 02:42:18;;;;;;;0.90;0.90;;;18.20;71.00;;;;;;5442505;26;20356;-84
2024/04/18 02:44:43;;;;;;;0.68;0.68;;;18.20;71.00;;;;;;5439832;26;20007;-84
2024/04/18 02:47:09;;;;;;;0.68;0.68;;;18.20;71.00;;;;;;5438539;26;20019;-81
2024/04/18 02:49:35;;;;;;;1.30;0.77;;;18.20;71.00;;;;;;5446342;26;20002;-84
2024/04/18 02:52:01;;;;;;;0.90;0.90;;;18.20;70.90;;;;;;5437068;26;20019;-84
2024/04/18 02:54:26;;;;;;;0.82;0.82;;;18.20;71.00;;;;;;5437945;26;20014;-84
2024/04/18 02:56:52;;;;;;;1.00;0.90;;;18.20;70.90;;;;;;5434824;26;20047;-84
2024/04/18 02:59:17;;;;;;;0.88;0.73;;;18.20;70.90;;;;;;5437965;26;20014;-84
2024/04/18 03:01:43;;;;;;;0.55;0.55;;;18.20;71.00;;;;;;5464399;26;19999;-84
2024/04/18 03:04:09;;;;;;;0.52;0.52;;;18.20;71.00;;;;;;5443828;26;19994;-83
2024/04/18 03:06:34;;;;;;;0.68;0.68;;;18.20;70.90;;;;;;5433974;26;20626;-83
2024/04/18 03:09:00;;;;;;;0.70;0.70;;;18.20;70.90;;;;;;5433683;26;20072;-83
2024/04/18 03:11:25;;;;;;;0.80;0.80;;;18.20;71.00;;;;;;5412245;26;20524;-83
2024/04/18 03:13:51;;;;;;;0.50;0.50;;;18.10;70.90;;;;;;5497778;26;20114;-84
2024/04/18 03:16:17;;;;;;;0.70;0.70;;;18.10;70.90;;;;;;5440132;26;20109;-83
2024/04/18 03:18:42;;;;;;;0.68;0.68;;;18.10;71.00;;;;;;5439456;26;20326;-84
2024/04/18 03:21:08;;;;;;;0.75;0.75;;;18.10;71.10;;;;;;5437824;26;20046;-84
2024/04/18 03:23:34;;;;;;;0.70;0.70;;;18.10;70.90;;;;;;5438892;26;20034;-84
2024/04/18 03:25:59;;;;;;;0.70;0.70;;;18.10;71.00;;;;;;5444559;26;20471;-83
2024/04/18 03:28:25;;;;;;;0.77;0.77;;;18.10;70.90;;;;;;5443969;26;20088;-83
2024/04/18 03:30:50;;;;;;;0.77;0.77;;;18.10;70.90;;;;;;5442227;26;20005;-83
2024/04/18 03:33:16;;;;;;;0.70;0.70;;;18.10;71.00;;;;;;5414869;26;20007;-83
2024/04/18 03:35:42;;;;;;;0.77;0.77;;;18.20;71.00;;;;;;5437042;26;20003;-83
2024/04/18 03:38:07;;;;;;;0.70;0.60;;;18.10;70.90;;;;;;5442371;26;20006;-83
2024/04/18 03:40:33;;;;;;;0.63;0.60;;;18.10;71.60;;;;;;5409467;26;19996;-82
2024/04/18 03:42:58;;;;;;;0.60;0.60;;;18.10;70.80;;;;;;5414242;26;20485;-83
2024/04/18 03:45:24;;;;;;;0.88;0.70;;;18.10;70.90;;;;;;5412247;26;20007;-82
2024/04/18 03:47:53;;;;;;;0.50;0.50;;;18.10;70.80;;;;;;5438332;26;20448;-83
2024/04/18 03:50:18;;;;;;;0.50;0.50;;;18.10;70.90;;;;;;5413750;26;20007;-82
2024/04/18 03:52:44;;;;;;;0.68;0.68;;;18.10;71.00;;;;;;5442022;26;20091;-82
2024/04/18 03:55:10;;;;;;;0.73;0.73;;;18.10;71.00;;;;;;5443858;26;20003;-83
2024/04/18 03:57:35;;;;;;;0.70;0.70;;;18.00;70.90;;;;;;5434269;26;19995;-82
2024/04/18 04:00:01;;;;;;;0.68;0.68;;;18.10;70.90;;;;;;5412959;26;20014;-82
2024/04/18 04:02:27;;;;;;;0.63;0.63;;;18.10;70.80;;;;;;5413290;26;20039;-82
2024/04/18 04:04:53;;;;;;;0.73;0.73;;;18.10;70.90;;;;;;5444044;26;20010;-84
2024/04/18 04:07:20;;;;;;;0.50;0.50;;;18.00;70.90;;;;;;5414071;26;20452;-84
2024/04/18 04:09:45;;;;;;;0.50;0.50;;;18.00;71.70;;;;;;5438665;26;20006;-85
2024/04/18 04:12:11;;;;;;;0.60;0.60;;;18.00;70.90;;;;;;5436564;26;20072;-85
2024/04/18 04:14:37;;;;;;;1.55;0.60;;;18.10;70.70;;;;;;5435239;26;20010;-85
2024/04/18 04:17:02;;;;;;;0.75;0.75;;;18.00;70.30;;;;;;5437756;26;20019;-85
2024/04/18 04:19:28;;;;;;;0.60;0.60;;;18.00;70.20;;;;;;5443739;26;20027;-85
2024/04/18 04:21:53;;;;;;;0.52;0.52;;;18.00;70.10;;;;;;5407084;26;20010;-84
2024/04/18 04:24:19;;;;;;;0.50;0.50;;;18.00;70.10;;;;;;5412518;26;20006;-84
2024/04/18 04:26:45;;;;;;;0.70;0.50;;;18.00;69.90;;;;;;5442491;26;20024;-85
2024/04/18 04:29:10;;;;;;;0.60;0.60;;;18.00;70.00;;;;;;5470131;26;20019;-85
2024/04/18 04:31:36;;;;;;;0.60;0.60;;;18.00;70.00;;;;;;5442500;26;20893;-86
2024/04/18 04:34:02;;;;;;;0.47;0.47;;;18.00;69.90;;;;;;5411385;26;20002;-83
2024/04/18 04:36:27;;;;;;;0.40;0.40;;;18.10;69.90;;;;;;5437405;26;20010;-83
2024/04/18 04:38:53;;;;;;;0.70;0.70;;;18.00;69.80;;;;;;5439631;26;20098;-84
2024/04/18 04:41:18;;;;;;;0.57;0.57;;;18.00;69.90;;;;;;5409902;26;20010;-83
2024/04/18 04:43:44;;;;;;;0.45;0.45;;;18.00;69.90;;;;;;5440095;26;20031;-85
2024/04/18 04:46:10;;;;;;;0.50;0.50;;;18.00;69.90;;;;;;5439187;26;20022;-84
2024/04/18 04:48:36;;;;;;;0.65;0.50;;;18.00;70.00;;;;;;5440027;26;20014;-83
2024/04/18 04:51:02;;;;;;;0.43;0.43;;;18.00;69.90;;;;;;5411975;26;20029;-83
2024/04/18 04:53:28;;;;;;;0.40;0.40;;;18.00;69.80;;;;;;5413272;26;20340;-86
2024/04/18 04:55:54;;;;;;;0.70;0.70;;;18.00;70.70;;;;;;5439845;26;19999;-82
2024/04/18 04:58:20;;;;;;;0.50;0.43;;;18.00;69.90;;;;;;5442476;26;20003;-82
2024/04/18 05:00:46;;;;;;;0.60;0.60;;;18.00;70.00;;;;;;5438434;26;20011;-87
2024/04/18 05:03:11;;;;;;;1.33;0.50;;;18.00;69.90;;;;;;5060890;26;10000034;-83
2024/04/18 05:05:41;;;;;;;0.75;0.52;;;18.00;70.40;;;;;;5407731;26;20072;-83
2024/04/18 05:08:07;;;;;;;0.60;0.60;;;18.00;70.30;;;;;;5434598;26;20059;-82
2024/04/18 05:10:32;;;;;;;3.92;0.40;;;17.90;70.00;;;;;;5435770;26;20006;-82
2024/04/18 05:13:00;;;;;;;0.60;0.30;;;18.00;69.80;;;;;;5436681;26;20456;-84
2024/04/18 05:15:26;;;;;;;0.57;0.57;;;17.90;69.80;;;;;;5405966;26;20007;-84
2024/04/18 05:17:52;;;;;;;0.40;0.40;;;18.00;69.80;;;;;;5436444;26;20075;-84
2024/04/18 05:20:17;;;;;;;0.60;0.60;;;18.00;69.80;;;;;;5373829;26;20114;-83
2024/04/18 05:22:43;;;;;;;0.98;0.40;;;18.00;69.80;;;;;;5436136;26;20031;-83
2024/04/18 05:25:08;;;;;;;0.98;0.52;;;18.00;69.80;;;;;;5436244;26;20014;-84
2024/04/18 05:27:35;;;;;;;0.38;0.38;;;18.00;69.90;;;;;;5428408;26;20334;-83
2024/04/18 05:32:44;;;;;;;1.92;0.63;;;18.00;70.10;;;;;;5422241;26;20041;-83
2024/04/18 05:35:10;;;;;;;0.40;0.40;;;18.00;70.10;;;;;;5406230;26;20003;-83
2024/04/18 05:37:36;;;;;;;0.50;0.50;;;18.00;70.00;;;;;;5437110;26;20003;-83
2024/04/18 05:40:01;;;;;;;0.45;0.45;;;18.00;70.00;;;;;;5428264;26;20003;-84
2024/04/18 05:42:27;;;;;;;0.50;0.47;;;18.00;69.90;;;;;;5437116;26;20019;-83
2024/04/18 05:44:52;;;;;;;0.50;0.50;;;18.00;70.00;;;;;;5409017;26;20226;-84
2024/04/18 05:47:18;;;;;;;0.55;0.55;;;18.00;70.10;;;;;;5403369;26;20011;-84
2024/04/18 05:49:44;;;;;;;0.40;0.40;;;18.00;70.10;;;;;;5378656;26;20079;-83
2024/04/18 05:52:09;;;;;;;0.55;0.50;;;18.00;70.10;;;;;;5440817;26;20033;-83
2024/04/18 05:54:35;;;;;;;0.47;0.47;;;18.00;70.10;;;;;;5409187;26;20007;-82
2024/04/18 05:57:00;;;;;;;0.45;0.45;;;17.90;70.00;;;;;;5432953;26;20039;-83
2024/04/18 05:59:26;;;;;;;0.50;0.40;;;18.00;70.10;;;;;;5410276;26;20017;-83
2024/04/18 06:01:51;;;;;;;0.55;0.45;;;17.90;70.00;;;;;;5437176;26;19999;-84
2024/04/18 06:04:17;;;;;;;0.40;0.40;;;18.00;69.90;;;;;;5432103;26;20022;-82
2024/04/18 06:06:42;;;;;;;0.40;0.30;;;18.00;70.10;;;;;;5381047;26;20452;-85
2024/04/18 06:09:08;;;;;;;0.30;0.30;;;18.00;70.10;;;;;;5429157;26;20030;-84
2024/04/18 06:11:41;;;;;;;0.43;0.40;;;18.00;69.90;;;;;;5432615;26;20079;-84
2024/04/18 06:14:10;;;;;;;0.77;0.60;;;18.00;69.70;;;;;;5406322;26;20012;-84
2024/04/18 06:16:36;;;;;;;0.50;0.50;;;18.00;69.60;;;;;;5406337;26;20018;-84
2024/04/18 06:19:01;;;;;;;0.50;0.47;;;18.00;69.80;;;;;;5409152;26;20002;-87
2024/04/18 06:21:27;;;;;;;0.40;0.40;;;18.00;69.90;;;;;;5432472;26;20034;-86
2024/04/18 06:23:52;;;;;;;0.45;0.30;;;18.00;70.60;;;;;;5406987;26;20084;-85
2024/04/18 06:26:18;;;;;;;0.60;0.60;;;18.00;70.40;;;;;;5437701;26;20351;-84
2024/04/18 06:28:45;;;;;;;0.20;0.20;;;18.00;70.80;;;;;;5434823;26;19995;-85
2024/04/18 06:31:11;;;;;;;0.65;0.47;;;18.00;70.50;;;;;;5438256;26;20071;-84
2024/04/18 06:33:37;;;;;;;0.50;0.40;;;18.00;70.40;;;;;;5405455;26;20553;-84
2024/04/18 06:36:03;;;;;;;0.30;0.30;;;18.00;70.20;;;;;;5405758;26;20003;-84
2024/04/18 06:38:28;;;;;;;0.30;0.30;;;18.00;70.10;;;;;;5437225;26;20081;-86
2024/04/18 06:40:54;;;;;;;0.57;0.50;;;18.00;70.10;;;;;;5377973;26;20010;-84
2024/04/18 06:43:19;;;;;;;1.38;0.20;;;18.00;70.10;;;;;;5444167;26;20460;-84
2024/04/18 06:45:45;;;;;;;0.30;0.30;;;18.00;70.10;;;;;;5412825;26;19995;-84
2024/04/18 06:48:11;;;;;;;0.40;0.38;;;18.00;70.30;;;;;;5442232;26;20003;-84
2024/04/18 06:50:37;;;;;;;0.40;0.40;;;18.00;70.80;;;;;;5443526;26;20002;-85
2024/04/18 06:53:03;;;;;;;0.52;0.30;;;18.00;70.60;;;;;;5435388;26;19999;-84
2024/04/18 06:55:29;;;;;;;0.47;0.40;;;18.00;70.30;;;;;;5438539;26;20007;-84
2024/04/18 06:57:55;;;;;;;0.40;0.40;;;18.00;70.10;;;;;;5413272;26;20078;-84
2024/04/18 07:00:21;;;;;;;0.40;0.40;;;18.00;70.10;;;;;;5434678;26;20015;-85
2024/04/18 07:02:46;;;;;;;0.40;0.40;;;18.00;70.10;;;;;;5441947;26;19996;-85
2024/04/18 07:05:12;;;;;;;0.40;0.40;;;18.00;70.00;;;;;;5411974;26;20014;-84
2024/04/18 07:07:38;;;;;;;0.50;0.50;;;18.00;70.30;;;;;;5414424;26;20390;-84
2024/04/18 07:10:05;;;;;;;0.32;0.30;;;18.00;70.40;;;;;;5440903;26;20399;-85
2024/04/18 07:12:30;;;;;;;0.43;0.40;;;18.00;70.20;;;;;;5440280;26;20452;-84
2024/04/18 07:14:56;;;;;;;0.30;0.30;;;18.00;70.00;;;;;;5439292;26;20423;-84
2024/04/18 07:17:21;;;;;;;0.68;0.30;;;18.00;70.10;;;;;;5439476;26;20440;-84
2024/04/18 07:19:47;;;;;;;0.22;0.22;;;17.90;70.20;;;;;;5442681;26;20080;-84
2024/04/18 07:22:13;;;;;;;0.55;0.50;;;18.00;70.10;;;;;;5445951;26;20013;-84
2024/04/18 07:24:38;;;;;;;0.40;0.40;;;17.90;70.30;;;;;;5382339;26;20440;-85
2024/04/18 07:27:04;;;;;;;0.32;0.32;;;17.90;70.30;;;;;;5439149;26;20083;-84
2024/04/18 07:29:29;;;;;;;0.30;0.30;;;17.90;70.20;;;;;;5437319;26;20014;-84
2024/04/18 07:31:55;;;;;;;0.50;0.50;;;17.90;70.30;;;;;;5441174;26;20508;-84
2024/04/18 07:34:21;;;;;;;0.43;0.38;;;17.90;70.20;;;;;;5439104;26;20003;-84
2024/04/18 07:36:49;;;;;;;2.90;0.65;;;17.90;70.30;;;;;;5440290;26;20006;-84
2024/04/18 07:39:15;;;;;;;0.40;0.40;;;17.90;71.10;;;;;;5412756;26;20003;-84
2024/04/18 07:41:40;;;;;;;0.35;0.35;;;17.90;70.50;;;;;;5436849;26;20019;-84
2024/04/18 07:44:08;;;;;;;1.08;0.50;;;17.90;70.40;;;;;;5434932;26;20007;-84
2024/04/18 07:46:34;;;;;;;0.47;0.40;;;17.90;70.40;;;;;;5414767;26;20315;-83
2024/04/18 07:49:00;;;;;;;0.55;0.40;;;17.90;70.40;;;;;;5413862;26;19995;-83
2024/04/18 07:51:25;;;;;;;0.30;0.30;;;17.90;70.40;;;;;;5442136;26;20014;-83
2024/04/18 07:53:51;;;;;;;1.67;0.40;;;17.90;70.40;;;;;;5444859;26;20328;-83
2024/04/18 07:56:16;;;;;;;0.38;0.30;;;17.90;70.50;;;;;;5444001;26;20013;-83
2024/04/18 07:58:42;;;;;;;0.38;0.28;;;17.90;70.50;;;;;;5435372;26;20015;-83
2024/04/18 08:01:11;;;;;;;0.45;0.30;;;17.90;70.60;;;;;;5444028;26;20003;-84
2024/04/18 08:03:38;;;;;;;0.43;0.40;;;17.90;70.70;;;;;;5442457;26;20019;-83
2024/04/18 08:06:04;;;;;;;0.40;0.40;;;17.90;70.70;;;;;;5443025;26;19998;-83
2024/04/18 08:08:30;;;;;;;0.28;0.28;;;17.90;70.70;;;;;;5442541;26;20349;-83
2024/04/18 08:10:57;;;;;;;0.40;0.30;;;17.90;70.70;;;;;;5498645;26;20071;-83
2024/04/18 08:13:23;;;;;;;0.30;0.30;;;17.90;70.80;;;;;;5441296;26;20463;-83
2024/04/18 08:15:49;;;;;;;0.30;0.30;;;18.00;70.70;;;;;;5435947;26;20067;-84
2024/04/18 08:18:16;;;;;;;0.30;0.30;;;18.00;70.70;;;;;;5471642;26;20014;-83
2024/04/18 08:20:43;;;;;;;0.40;0.40;;;18.00;70.50;;;;;;5425316;26;20008;-83
2024/04/18 08:23:08;;;;;;;0.20;0.20;;;18.10;70.60;;;;;;5411621;26;20003;-83
2024/04/18 08:25:34;;;;;;;0.30;0.30;;;18.00;70.50;;;;;;5440877;26;20055;-83
2024/04/18 08:28:00;;;;;;;0.80;0.50;;;18.00;70.80;;;;;;5441424;26;19999;-83
2024/04/18 08:30:26;;;;;;;0.30;0.30;;;18.10;70.70;;;;;;5441455;26;19999;-83
2024/04/18 08:32:52;;;;;;;0.40;0.20;;;18.10;70.70;;;;;;5437606;26;20027;-83
2024/04/18 08:35:19;;;;;;;0.30;0.30;;;18.10;70.60;;;;;;5499972;26;20018;-83
2024/04/18 08:37:45;;;;;;;0.30;0.20;;;18.10;70.70;;;;;;5468533;26;20019;-83
2024/04/18 08:40:10;;;;;;;0.30;0.20;;;18.10;70.70;;;;;;5440693;26;20042;-83
2024/04/18 08:42:36;;;;;;;0.40;0.30;;;18.10;70.60;;;;;;5440699;26;20087;-83
2024/04/18 08:45:02;;;;;;;0.55;0.40;;;18.10;70.60;;;;;;5441075;26;20018;-83
2024/04/18 08:47:27;;;;;;;0.20;0.20;;;18.20;70.50;;;;;;5412551;26;20003;-83
2024/04/18 08:49:54;;;;;;;0.30;0.25;;;18.20;70.40;;;;;;5438460;26;19995;-83
2024/04/18 08:52:19;;;;;;;0.17;0.17;;;18.20;70.40;;;;;;5442265;26;20031;-84
2024/04/18 08:54:45;;;;;;;0.30;0.30;;;18.20;70.40;;;;;;5410516;26;20017;-84
2024/04/18 08:57:12;;;;;;;0.30;0.25;;;18.30;70.40;;;;;;5442533;26;20031;-83
2024/04/18 08:59:37;;;;;;;0.20;0.20;;;18.30;70.30;;;;;;5439854;26;20449;-83
2024/04/18 09:02:03;;;;;;;0.30;0.30;;;18.40;70.10;;;;;;5381393;26;20003;-83
2024/04/18 09:04:29;;;;;;;0.52;0.30;;;18.40;70.00;;;;;;5413701;26;20013;-83
2024/04/18 09:06:55;;;;;;;0.90;0.20;;;18.40;70.00;;;;;;5441920;26;20011;-83
2024/04/18 09:09:22;;;;;;;0.20;0.20;;;18.40;69.70;;;;;;5435059;26;20076;-83
2024/04/18 09:11:48;;;;;;;0.17;0.17;;;18.50;69.70;;;;;;5436404;26;20067;-83
2024/04/18 09:14:13;;;;;;;0.15;0.10;;;18.50;69.40;;;;;;5443441;26;20488;-83
2024/04/18 09:16:39;;;;;;;0.20;0.20;;;18.50;69.20;;;;;;5441974;26;20003;-83
2024/04/18 09:19:05;;;;;;;0.40;0.30;;;18.50;69.10;;;;;;5429876;26;19995;-83
2024/04/18 09:21:33;;;;;;;0.20;0.20;;;18.50;69.00;;;;;;5433168;26;20011;-83
2024/04/18 09:23:58;;;;;;;0.40;0.15;;;18.60;69.00;;;;;;5441121;26;20014;-83
2024/04/18 09:26:28;;;;;;;0.30;0.30;;;18.60;68.90;;;;;;5470089;26;20392;-83
2024/04/18 09:28:55;;;;;;;0.30;0.30;;;18.60;68.80;;;;;;5442241;26;20833;-83
2024/04/18 09:31:20;;;;;;;0.38;0.20;;;18.60;68.70;;;;;;5441179;26;20002;-83
2024/04/18 09:33:47;;;;;;;0.40;0.20;;;18.60;68.60;;;;;;5411041;26;20018;-83
2024/04/18 09:36:13;;;;;;;0.20;0.20;;;18.60;69.30;;;;;;5409494;26;20075;-83
2024/04/18 09:38:39;;;;;;;0.20;0.20;;;18.60;68.50;;;;;;5406871;26;20023;-83
2024/04/18 09:41:10;;;;;;;0.03;0.03;;;18.60;68.50;;;;;;5407840;26;20356;-83
2024/04/18 09:44:03;;;;;;;0.15;0.15;;;18.60;68.50;;;;;;5444350;26;20455;-83
2024/04/18 09:46:31;;;;;;;1.35;0.75;;;18.70;68.50;;;;;;5437845;26;20076;-83
2024/04/18 09:48:56;;;;;;;0.20;0.20;;;18.70;68.40;;;;;;5410605;26;20010;-83
2024/04/18 09:51:22;;;;;;;0.10;0.10;;;18.70;68.40;;;;;;5382194;26;20015;-83
2024/04/18 09:53:48;;;;;;;0.20;0.10;;;18.70;68.40;;;;;;5379562;26;20019;-83
2024/04/18 09:56:14;;;;;;;0.47;0.15;;;18.70;68.40;;;;;;5408005;26;20004;-83
2024/04/18 09:58:40;;;;;;;0.50;0.20;;;18.60;68.50;;;;;;5440120;26;20339;-83
2024/04/18 10:01:06;;;;;;;0.47;0.20;;;18.60;68.50;;;;;;5437587;26;20458;-83
2024/04/18 10:03:31;;;;;;;0.20;0.20;;;18.60;68.40;;;;;;5435049;26;19999;-83
2024/04/18 10:06:03;;;;;;;0.20;0.10;;;18.70;68.50;;;;;;5494643;26;20035;-83
2024/04/18 10:08:50;;;;;;;0.10;0.10;;;18.60;68.40;;;;;;5383690;26;23165;-83
2024/04/18 10:11:16;;;;;;;0.10;0.10;;;18.70;68.40;;;;;;5434825;26;20007;-84
2024/04/18 10:13:43;;;;;;;0.13;0.10;;;18.70;68.40;;;;;;5440289;26;20003;-83
2024/04/18 10:16:09;;;;;;;0.10;0.10;;;18.70;68.50;;;;;;5467546;26;20011;-83
2024/04/18 10:18:35;;;;;;;0.20;0.10;;;18.70;68.40;;;;;;5418048;26;20003;-83
2024/04/18 10:21:06;;;;;;;0.20;0.20;;;18.70;68.40;;;;;;5437368;26;20009;-83
2024/04/18 10:23:32;;;;;;;0.15;0.10;;;18.70;68.40;;;;;;5441044;26;20064;-84
2024/04/18 10:25:58;;;;;;;2.00;0.10;;;18.70;68.40;;;;;;5408178;26;20005;-83
2024/04/18 10:28:25;;;;;;;0.13;0.13;;;18.70;68.50;;;;;;5443979;26;20014;-84
2024/04/18 10:30:51;;;;;;;0.20;0.10;;;18.70;68.50;;;;;;5438797;26;20071;-83
2024/04/18 10:33:25;;;;;;;0.28;0.13;;;18.70;68.60;;;;;;5437848;26;20445;-83
2024/04/18 10:35:51;;;;;;;0.10;0.10;;;18.60;68.50;;;;;;5412196;26;20017;-83
2024/04/18 10:38:25;;;;;;;0.10;0.10;;;18.60;68.60;;;;;;5414575;26;20076;-83
2024/04/18 10:41:02;;;;;;;0.10;0.10;;;18.60;68.50;;;;;;5444068;26;20022;-83
2024/04/18 10:43:28;;;;;;;0.43;0.10;;;18.60;68.40;;;;;;5444813;26;20456;-83
2024/04/18 10:45:55;;;;;;;0.10;0.10;;;18.70;68.50;;;;;;5439665;26;20011;-83
2024/04/18 10:48:23;;;;;;;0.20;0.20;;;18.70;68.40;;;;;;5444513;26;20015;-83
2024/04/18 10:50:51;;;;;;;0.20;0.20;;;18.70;68.30;;;;;;5383110;26;20014;-83
2024/04/18 10:53:17;;;;;;;0.22;0.22;;;18.70;68.20;;;;;;5438771;26;20035;-83
2024/04/18 10:55:43;;;;;;;0.10;0.00;;;18.70;68.30;;;;;;5444660;26;20013;-83
2024/04/18 10:58:16;;;;;;;0.28;0.28;;;18.70;68.30;;;;;;5443550;26;20117;-83
2024/04/18 11:00:45;;;;;;;0.10;0.10;;;18.80;68.10;;;;;;5440830;26;20328;-84
2024/04/18 11:03:11;;;;;;;0.20;0.20;;;18.80;68.00;;;;;;5441631;26;19995;-83
2024/04/18 11:05:37;;;;;;;0.20;0.20;;;18.80;68.10;;;;;;5443335;26;20097;-82
2024/04/18 11:08:03;;;;;;;0.17;0.17;;;18.80;68.10;;;;;;5411513;26;20008;-83
2024/04/18 11:10:29;;;;;;;0.20;0.20;;;18.80;68.20;;;;;;5444662;26;20025;-83
2024/04/18 11:13:00;;;;;;;0.20;0.20;;;18.80;67.80;;;;;;5413959;26;20003;-83
2024/04/18 11:15:25;;;;;;;0.20;0.20;;;18.80;67.90;;;;;;5435291;26;20456;-84
2024/04/18 11:17:51;;;;;;;0.10;0.10;;;18.90;68.80;;;;;;5412344;26;20078;-83
2024/04/18 11:20:18;;;;;;;0.25;0.13;;;18.90;68.00;;;;;;5410593;26;20014;-84
2024/04/18 11:22:44;;;;;;;0.20;0.20;;;18.80;67.90;;;;;;5383291;26;20012;-83
2024/04/18 11:25:10;;;;;;;0.17;0.10;;;18.80;68.00;;;;;;5383987;26;20013;-83
2024/04/18 11:27:36;;;;;;;0.13;0.10;;;18.80;68.10;;;;;;5385191;26;20007;-83
2024/04/18 11:30:04;;;;;;;0.20;0.20;;;18.80;68.10;;;;;;5412895;26;20016;-84
2024/04/18 11:32:29;;;;;;;0.10;0.10;;;18.80;68.10;;;;;;5444384;26;20022;-84
2024/04/18 11:34:55;;;;;;;0.13;0.10;;;18.80;67.90;;;;;;5062805;26;10001153;-84
2024/04/18 11:37:20;;;;;;;0.00;0.00;;;18.80;68.00;;;;;;5436858;26;20006;-84
2024/04/18 11:39:46;;;;;;;0.10;0.10;;;18.80;67.80;;;;;;5431015;26;20060;-84
2024/04/18 11:42:12;;;;;;;0.10;0.10;;;18.80;67.80;;;;;;5435028;26;20031;-85
2024/04/18 11:44:37;;;;;;;0.10;0.10;;;18.80;67.80;;;;;;5433207;26;20015;-83
2024/04/18 11:47:03;;;;;;;0.20;0.20;;;18.80;67.90;;;;;;5376542;26;20067;-84
2024/04/18 11:49:29;;;;;;;0.28;0.20;;;18.80;68.10;;;;;;5407597;26;20011;-84
2024/04/18 11:51:54;;;;;;;0.45;0.30;;;18.90;68.20;;;;;;5405307;26;20039;-83
2024/04/18 11:54:20;;;;;;;0.20;0.20;;;18.90;68.10;;;;;;5432682;26;20472;-84
2024/04/18 11:56:45;;;;;;;0.10;0.10;;;18.90;68.30;;;;;;5414224;26;20017;-84
2024/04/18 11:59:11;;;;;;;0.22;0.22;;;18.90;68.10;;;;;;5439331;26;19999;-84
2024/04/18 12:01:37;;;;;;;0.10;0.10;;;18.90;68.00;;;;;;5443988;26;20460;-84
2024/04/18 12:04:02;;;;;;;0.10;0.10;;;18.90;68.20;;;;;;5439745;26;20460;-84
2024/04/18 12:06:28;;;;;;;0.05;0.05;;;18.90;68.10;;;;;;5440328;26;20007;-84
2024/04/18 12:08:54;;;;;;;0.10;0.10;;;18.90;68.20;;;;;;5436091;26;20076;-84
2024/04/18 12:11:19;;;;;;;0.10;0.10;;;18.90;68.20;;;;;;5437197;26;20690;-84
2024/04/18 12:13:46;;;;;;;0.20;0.10;;;18.90;69.00;;;;;;5441455;26;19995;-84
2024/04/18 12:16:12;;;;;;;0.20;0.10;;;18.90;68.10;;;;;;5443363;26;19999;-84
2024/04/18 12:18:37;;;;;;;0.10;0.10;;;18.90;68.20;;;;;;5442413;26;20006;-84
2024/04/18 12:21:03;;;;;;;0.82;0.10;;;19.00;68.20;;;;;;5440291;26;20071;-84
2024/04/18 12:23:32;;;;;;;0.03;0.03;;;18.90;68.00;;;;;;5380589;26;20007;-84
2024/04/18 12:25:58;;;;;;;0.10;0.10;;;18.90;68.00;;;;;;5466561;26;20015;-84
2024/04/18 12:28:23;;;;;;;0.30;0.20;;;18.90;68.10;;;;;;5440289;26;20352;-84
2024/04/18 12:30:49;;;;;;;0.65;0.30;;;18.90;68.10;;;;;;5437524;26;20473;-84
2024/04/18 12:33:14;;;;;;;0.30;0.10;;;18.90;68.20;;;;;;5442781;26;20043;-84
2024/04/18 12:35:40;;;;;;;0.20;0.20;;;18.90;68.20;;;;;;5438230;26;20014;-84
2024/04/18 12:38:05;;;;;;;0.43;0.13;;;18.90;68.90;;;;;;5380684;26;20445;-84
2024/04/18 12:40:31;;;;;;;0.45;0.10;;;18.90;68.10;;;;;;5443279;26;20003;-85
2024/04/18 12:42:57;;;;;;;0.10;0.05;;;18.90;68.20;;;;;;5439644;26;20452;-84